SPATN LOWW-EPKK
Flight info
| Callsign | SPATN |
|---|---|
| Flight time | 1h 14m |
| Altitude | 7000 |
| Route | LOWWSCHONAU DCT LOWWRUTZENDORF DCT LOWWSTRASSHOF/N0150F020 DCT ALKBA/N0150F050 DCT KNE DCT ALKFR/N0150F070 DCT PSZ DCT EPKKS DCT EPKKK |
| Aircraft | PA24/L-SBDFGRY/SB1 |
Departure
| Time | 2026-05-06 18:34 |
|---|---|
| Airport | Vienna International Airport (LOWW) |
Arrival
| Time | 2026-05-06 19:48 |
|---|---|
| Airport | Kraków John Paul II International Airport (EPKK) |
| Time | Latitude | Longitude | Altitude | Speed | Heading |
|---|---|---|---|---|---|
| 2026-05-06 18:17 | 48.12693 | 16.53708 | 577 ft | 0 kts | 292° |
| 2026-05-06 18:24 | 48.12693 | 16.53707 | 577 ft | 0 kts | 292° |
| 2026-05-06 18:25 | 48.12693 | 16.53706 | 577 ft | 0 kts | 292° |
| 2026-05-06 18:25 | 48.12687 | 16.53666 | 576 ft | 8 kts | 217° |
| 2026-05-06 18:26 | 48.12657 | 16.53617 | 577 ft | 8 kts | 275° |
| 2026-05-06 18:26 | 48.12646 | 16.53571 | 577 ft | 4 kts | 216° |
| 2026-05-06 18:26 | 48.12611 | 16.53543 | 578 ft | 7 kts | 205° |
| 2026-05-06 18:26 | 48.12556 | 16.53507 | 577 ft | 11 kts | 205° |
| 2026-05-06 18:27 | 48.12489 | 16.53498 | 576 ft | 10 kts | 192° |
| 2026-05-06 18:27 | 48.12426 | 16.53535 | 578 ft | 13 kts | 113° |
| 2026-05-06 18:27 | 48.12377 | 16.53687 | 577 ft | 20 kts | 114° |
| 2026-05-06 18:27 | 48.12310 | 16.53893 | 577 ft | 21 kts | 116° |
| 2026-05-06 18:28 | 48.12260 | 16.54050 | 577 ft | 17 kts | 117° |
| 2026-05-06 18:28 | 48.12203 | 16.54224 | 580 ft | 18 kts | 116° |
| 2026-05-06 18:28 | 48.12149 | 16.54392 | 581 ft | 21 kts | 115° |
| 2026-05-06 18:28 | 48.12081 | 16.54597 | 586 ft | 23 kts | 116° |
| 2026-05-06 18:29 | 48.12006 | 16.54826 | 587 ft | 25 kts | 116° |
| 2026-05-06 18:29 | 48.11931 | 16.55055 | 587 ft | 25 kts | 117° |
| 2026-05-06 18:29 | 48.11905 | 16.55138 | 587 ft | 21 kts | 115° |
| 2026-05-06 18:30 | 48.11881 | 16.55213 | 588 ft | 15 kts | 117° |
| 2026-05-06 18:30 | 48.11839 | 16.55343 | 588 ft | 19 kts | 117° |
| 2026-05-06 18:30 | 48.11764 | 16.55574 | 592 ft | 29 kts | 116° |
| 2026-05-06 18:30 | 48.11668 | 16.55866 | 596 ft | 30 kts | 116° |
| 2026-05-06 18:31 | 48.11573 | 16.56155 | 596 ft | 32 kts | 118° |
| 2026-05-06 18:31 | 48.11479 | 16.56448 | 592 ft | 32 kts | 116° |
| 2026-05-06 18:31 | 48.11399 | 16.56693 | 595 ft | 21 kts | 117° |
| 2026-05-06 18:31 | 48.11337 | 16.56883 | 599 ft | 23 kts | 115° |
| 2026-05-06 18:32 | 48.11257 | 16.57128 | 600 ft | 25 kts | 116° |
| 2026-05-06 18:32 | 48.11257 | 16.57291 | 600 ft | 15 kts | 38° |
| 2026-05-06 18:32 | 48.11252 | 16.57430 | 601 ft | 21 kts | 117° |
| 2026-05-06 18:32 | 48.11172 | 16.57668 | 601 ft | 26 kts | 118° |
| 2026-05-06 18:33 | 48.11101 | 16.57890 | 597 ft | 23 kts | 115° |
| 2026-05-06 18:33 | 48.11045 | 16.58061 | 598 ft | 16 kts | 118° |
| 2026-05-06 18:33 | 48.10965 | 16.58217 | 598 ft | 18 kts | 145° |
| 2026-05-06 18:33 | 48.10883 | 16.58276 | 600 ft | 14 kts | 159° |
| 2026-05-06 18:34 | 48.10564 | 16.58420 | 639 ft | 68 kts | 171° |
| 2026-05-06 18:34 | 48.10038 | 16.58642 | 866 ft | 84 kts | 163° |
| 2026-05-06 18:34 | 48.09431 | 16.58940 | 1100 ft | 96 kts | 166° |
| 2026-05-06 18:34 | 48.08772 | 16.59263 | 1300 ft | 102 kts | 160° |
| 2026-05-06 18:35 | 48.08291 | 16.60066 | 1428 ft | 116 kts | 117° |
| 2026-05-06 18:35 | 48.08326 | 16.61380 | 1433 ft | 141 kts | 79° |
| 2026-05-06 18:35 | 48.08777 | 16.62760 | 1428 ft | 153 kts | 53° |
| 2026-05-06 18:35 | 48.09759 | 16.63436 | 1378 ft | 164 kts | 9° |
| 2026-05-06 18:36 | 48.10905 | 16.63569 | 1384 ft | 168 kts | 0° |
| 2026-05-06 18:36 | 48.12069 | 16.63346 | 1357 ft | 168 kts | 345° |
| 2026-05-06 18:36 | 48.13172 | 16.62928 | 1393 ft | 167 kts | 350° |
| 2026-05-06 18:36 | 48.14343 | 16.62957 | 1442 ft | 167 kts | 1° |
| 2026-05-06 18:37 | 48.15515 | 16.62976 | 1467 ft | 172 kts | 0° |
| 2026-05-06 18:37 | 48.16314 | 16.62969 | 1470 ft | 175 kts | 0° |
| 2026-05-06 18:37 | 48.17954 | 16.62901 | 1458 ft | 180 kts | 358° |
| 2026-05-06 18:37 | 48.19215 | 16.62877 | 1465 ft | 182 kts | 358° |
| 2026-05-06 18:38 | 48.20493 | 16.62882 | 1428 ft | 184 kts | 360° |
| 2026-05-06 18:38 | 48.21770 | 16.62932 | 1409 ft | 183 kts | 2° |
| 2026-05-06 18:38 | 48.23048 | 16.63024 | 1350 ft | 185 kts | 3° |
| 2026-05-06 18:38 | 48.24337 | 16.63113 | 1340 ft | 186 kts | 4° |
| 2026-05-06 18:39 | 48.25624 | 16.63140 | 1368 ft | 183 kts | 2° |
| 2026-05-06 18:39 | 48.26890 | 16.63215 | 1359 ft | 182 kts | 4° |
| 2026-05-06 18:39 | 48.28150 | 16.63369 | 1366 ft | 179 kts | 7° |
| 2026-05-06 18:40 | 48.29330 | 16.63595 | 1414 ft | 180 kts | 11° |
| 2026-05-06 18:40 | 48.30565 | 16.63893 | 1468 ft | 179 kts | 9° |
| 2026-05-06 18:40 | 48.31806 | 16.64215 | 1532 ft | 179 kts | 11° |
| 2026-05-06 18:40 | 48.33030 | 16.64452 | 1708 ft | 174 kts | 11° |
| 2026-05-06 18:41 | 48.34219 | 16.64758 | 1815 ft | 175 kts | 12° |
| 2026-05-06 18:41 | 48.35426 | 16.65165 | 1902 ft | 180 kts | 15° |
| 2026-05-06 18:41 | 48.36648 | 16.65610 | 1938 ft | 184 kts | 16° |
| 2026-05-06 18:41 | 48.37883 | 16.66107 | 1973 ft | 184 kts | 18° |
| 2026-05-06 18:42 | 48.39112 | 16.66694 | 2037 ft | 185 kts | 21° |
| 2026-05-06 18:42 | 48.40323 | 16.67384 | 2066 ft | 188 kts | 23° |
| 2026-05-06 18:42 | 48.41550 | 16.68123 | 2057 ft | 191 kts | 24° |
| 2026-05-06 18:42 | 48.42755 | 16.68900 | 2216 ft | 183 kts | 28° |
| 2026-05-06 18:43 | 48.43875 | 16.69644 | 2503 ft | 170 kts | 27° |
| 2026-05-06 18:43 | 48.44935 | 16.70397 | 2731 ft | 167 kts | 28° |
| 2026-05-06 18:43 | 48.46004 | 16.71056 | 2992 ft | 163 kts | 24° |
| 2026-05-06 18:43 | 48.47047 | 16.71691 | 3271 ft | 161 kts | 24° |
| 2026-05-06 18:44 | 48.48076 | 16.72349 | 3535 ft | 157 kts | 25° |
| 2026-05-06 18:44 | 48.49068 | 16.72990 | 3766 ft | 156 kts | 24° |
| 2026-05-06 18:44 | 48.50059 | 16.73634 | 3977 ft | 155 kts | 22° |
| 2026-05-06 18:44 | 48.51074 | 16.74224 | 4153 ft | 158 kts | 20° |
| 2026-05-06 18:45 | 48.52114 | 16.74792 | 4320 ft | 160 kts | 18° |
| 2026-05-06 18:45 | 48.53181 | 16.75356 | 4400 ft | 165 kts | 19° |
| 2026-05-06 18:45 | 48.54270 | 16.75945 | 4481 ft | 169 kts | 18° |
| 2026-05-06 18:45 | 48.55016 | 16.76347 | 4481 ft | 174 kts | 19° |
| 2026-05-06 18:46 | 48.56505 | 16.77191 | 4683 ft | 167 kts | 21° |
| 2026-05-06 18:46 | 48.57563 | 16.77915 | 4814 ft | 168 kts | 26° |
| 2026-05-06 18:46 | 48.58615 | 16.78718 | 4875 ft | 172 kts | 24° |
| 2026-05-06 18:46 | 48.59686 | 16.79547 | 4922 ft | 175 kts | 28° |
| 2026-05-06 18:47 | 48.60773 | 16.80389 | 4974 ft | 176 kts | 26° |
| 2026-05-06 18:47 | 48.61873 | 16.81272 | 4960 ft | 180 kts | 25° |
| 2026-05-06 18:47 | 48.62622 | 16.81820 | 4966 ft | 181 kts | 24° |
| 2026-05-06 18:47 | 48.63668 | 16.82871 | 4972 ft | 182 kts | 37° |
| 2026-05-06 18:48 | 48.64676 | 16.84031 | 4972 ft | 182 kts | 34° |
| 2026-05-06 18:48 | 48.65838 | 16.84781 | 4972 ft | 182 kts | 19° |
| 2026-05-06 18:48 | 48.67025 | 16.85431 | 4975 ft | 182 kts | 18° |
| 2026-05-06 18:48 | 48.68236 | 16.86012 | 4975 ft | 182 kts | 15° |
| 2026-05-06 18:49 | 48.69438 | 16.86641 | 4975 ft | 184 kts | 21° |
| 2026-05-06 18:49 | 48.70633 | 16.87312 | 4974 ft | 182 kts | 18° |
| 2026-05-06 18:49 | 48.71842 | 16.87915 | 4976 ft | 183 kts | 18° |
| 2026-05-06 18:49 | 48.73041 | 16.88556 | 4974 ft | 183 kts | 21° |
| 2026-05-06 18:50 | 48.74239 | 16.89204 | 4975 ft | 183 kts | 19° |
| 2026-05-06 18:50 | 48.75434 | 16.89862 | 4973 ft | 183 kts | 20° |
| 2026-05-06 18:50 | 48.76628 | 16.90512 | 4976 ft | 182 kts | 17° |
| 2026-05-06 18:50 | 48.77832 | 16.91099 | 4975 ft | 182 kts | 17° |
| 2026-05-06 18:51 | 48.79024 | 16.91728 | 4972 ft | 181 kts | 24° |
| 2026-05-06 18:51 | 48.80028 | 16.92861 | 4974 ft | 180 kts | 40° |
| 2026-05-06 18:51 | 48.81004 | 16.94064 | 4976 ft | 181 kts | 40° |
| 2026-05-06 18:51 | 48.81926 | 16.95374 | 4979 ft | 182 kts | 48° |
| 2026-05-06 18:52 | 48.82811 | 16.96731 | 4976 ft | 181 kts | 47° |
| 2026-05-06 18:52 | 48.83699 | 16.98077 | 4978 ft | 180 kts | 47° |
| 2026-05-06 18:52 | 48.84567 | 16.99446 | 4981 ft | 180 kts | 50° |
| 2026-05-06 18:52 | 48.85431 | 17.00838 | 4992 ft | 183 kts | 50° |
| 2026-05-06 18:53 | 48.86233 | 17.02349 | 4991 ft | 185 kts | 59° |
| 2026-05-06 18:53 | 48.86892 | 17.04021 | 4989 ft | 185 kts | 68° |
| 2026-05-06 18:53 | 48.87338 | 17.05830 | 4987 ft | 181 kts | 79° |
| 2026-05-06 18:53 | 48.87682 | 17.07657 | 4984 ft | 180 kts | 80° |
| 2026-05-06 18:54 | 48.88029 | 17.09484 | 4981 ft | 180 kts | 80° |
| 2026-05-06 18:54 | 48.88369 | 17.11316 | 4983 ft | 181 kts | 81° |
| 2026-05-06 18:54 | 48.88719 | 17.13159 | 4985 ft | 182 kts | 80° |
| 2026-05-06 18:54 | 48.89075 | 17.14959 | 5179 ft | 170 kts | 80° |
| 2026-05-06 18:55 | 48.89409 | 17.16633 | 5395 ft | 162 kts | 80° |
| 2026-05-06 18:55 | 48.89716 | 17.18192 | 5740 ft | 149 kts | 81° |
| 2026-05-06 18:55 | 48.90011 | 17.19735 | 5808 ft | 160 kts | 80° |
| 2026-05-06 18:55 | 48.90330 | 17.21379 | 6020 ft | 158 kts | 75° |
| 2026-05-06 18:56 | 48.91025 | 17.22688 | 6115 ft | 164 kts | 40° |
| 2026-05-06 18:56 | 48.91911 | 17.23745 | 6329 ft | 163 kts | 44° |
| 2026-05-06 18:56 | 48.92750 | 17.24908 | 6488 ft | 164 kts | 44° |
| 2026-05-06 18:56 | 48.93642 | 17.26013 | 6612 ft | 167 kts | 37° |
| 2026-05-06 18:57 | 48.94587 | 17.27048 | 6765 ft | 167 kts | 38° |
| 2026-05-06 18:57 | 48.95500 | 17.28106 | 6952 ft | 165 kts | 39° |
| 2026-05-06 18:57 | 48.96452 | 17.29230 | 6838 ft | 181 kts | 39° |
| 2026-05-06 18:57 | 48.97451 | 17.30403 | 6790 ft | 187 kts | 39° |
| 2026-05-06 18:58 | 48.98469 | 17.31641 | 6775 ft | 187 kts | 40° |
| 2026-05-06 18:58 | 48.99501 | 17.32849 | 6778 ft | 188 kts | 39° |
| 2026-05-06 18:58 | 49.00531 | 17.34079 | 6768 ft | 189 kts | 40° |
| 2026-05-06 18:58 | 49.01555 | 17.35317 | 6771 ft | 187 kts | 40° |
| 2026-05-06 18:59 | 49.02568 | 17.36552 | 6774 ft | 187 kts | 39° |
| 2026-05-06 18:59 | 49.03593 | 17.37773 | 6774 ft | 187 kts | 39° |
| 2026-05-06 18:59 | 49.04633 | 17.38976 | 6777 ft | 188 kts | 38° |
| 2026-05-06 18:59 | 49.05685 | 17.40153 | 6774 ft | 188 kts | 37° |
| 2026-05-06 19:00 | 49.06736 | 17.41339 | 6775 ft | 188 kts | 37° |
| 2026-05-06 19:00 | 49.07794 | 17.42506 | 6776 ft | 187 kts | 36° |
| 2026-05-06 19:00 | 49.08852 | 17.43661 | 6777 ft | 187 kts | 36° |
| 2026-05-06 19:00 | 49.09915 | 17.44809 | 6774 ft | 187 kts | 36° |
| 2026-05-06 19:01 | 49.10981 | 17.45962 | 6777 ft | 189 kts | 36° |
| 2026-05-06 19:01 | 49.12058 | 17.47115 | 6778 ft | 189 kts | 36° |
| 2026-05-06 19:01 | 49.13138 | 17.48252 | 6777 ft | 188 kts | 36° |
| 2026-05-06 19:01 | 49.14209 | 17.49391 | 6773 ft | 187 kts | 36° |
| 2026-05-06 19:02 | 49.15275 | 17.50527 | 6773 ft | 187 kts | 36° |
| 2026-05-06 19:02 | 49.16341 | 17.51678 | 6775 ft | 188 kts | 36° |
| 2026-05-06 19:02 | 49.17409 | 17.52828 | 6779 ft | 188 kts | 37° |
| 2026-05-06 19:02 | 49.18473 | 17.53988 | 6776 ft | 187 kts | 37° |
| 2026-05-06 19:03 | 49.19536 | 17.55133 | 6777 ft | 188 kts | 36° |
| 2026-05-06 19:03 | 49.20597 | 17.56296 | 6776 ft | 188 kts | 36° |
| 2026-05-06 19:03 | 49.21666 | 17.57467 | 6778 ft | 189 kts | 37° |
| 2026-05-06 19:03 | 49.22732 | 17.58643 | 6780 ft | 188 kts | 37° |
| 2026-05-06 19:04 | 49.23788 | 17.59824 | 6782 ft | 188 kts | 37° |
| 2026-05-06 19:04 | 49.24851 | 17.60992 | 6780 ft | 189 kts | 37° |
| 2026-05-06 19:04 | 49.25925 | 17.62164 | 6780 ft | 191 kts | 37° |
| 2026-05-06 19:04 | 49.27004 | 17.63352 | 6781 ft | 191 kts | 37° |
| 2026-05-06 19:05 | 49.28078 | 17.64538 | 6780 ft | 190 kts | 37° |
| 2026-05-06 19:05 | 49.29148 | 17.65727 | 6782 ft | 190 kts | 37° |
| 2026-05-06 19:05 | 49.30221 | 17.66922 | 6784 ft | 191 kts | 37° |
| 2026-05-06 19:05 | 49.31301 | 17.68104 | 6783 ft | 191 kts | 36° |
| 2026-05-06 19:06 | 49.32395 | 17.69257 | 6782 ft | 190 kts | 37° |
| 2026-05-06 19:06 | 49.33458 | 17.70449 | 6780 ft | 189 kts | 39° |
| 2026-05-06 19:06 | 49.34509 | 17.71664 | 6786 ft | 190 kts | 38° |
| 2026-05-06 19:06 | 49.35576 | 17.72870 | 6781 ft | 190 kts | 38° |
| 2026-05-06 19:07 | 49.36635 | 17.74050 | 6784 ft | 188 kts | 38° |
| 2026-05-06 19:07 | 49.37699 | 17.75225 | 6790 ft | 190 kts | 37° |
| 2026-05-06 19:07 | 49.38765 | 17.76396 | 6785 ft | 189 kts | 37° |
| 2026-05-06 19:07 | 49.39847 | 17.77567 | 6782 ft | 191 kts | 37° |
| 2026-05-06 19:08 | 49.40917 | 17.78771 | 6788 ft | 191 kts | 38° |
| 2026-05-06 19:08 | 49.41988 | 17.79973 | 6785 ft | 190 kts | 38° |
| 2026-05-06 19:08 | 49.43063 | 17.81156 | 6786 ft | 190 kts | 38° |
| 2026-05-06 19:08 | 49.44134 | 17.82338 | 6787 ft | 189 kts | 37° |
| 2026-05-06 19:09 | 49.45205 | 17.83517 | 6786 ft | 190 kts | 37° |
| 2026-05-06 19:09 | 49.46265 | 17.84689 | 6790 ft | 190 kts | 37° |
| 2026-05-06 19:09 | 49.47343 | 17.85878 | 6787 ft | 191 kts | 38° |
| 2026-05-06 19:09 | 49.48419 | 17.87086 | 6789 ft | 191 kts | 38° |
| 2026-05-06 19:10 | 49.49505 | 17.88303 | 6783 ft | 191 kts | 38° |
| 2026-05-06 19:10 | 49.50569 | 17.89484 | 6786 ft | 191 kts | 38° |
| 2026-05-06 19:10 | 49.51652 | 17.90702 | 6785 ft | 191 kts | 38° |
| 2026-05-06 19:10 | 49.52717 | 17.91884 | 6788 ft | 191 kts | 37° |
| 2026-05-06 19:11 | 49.53796 | 17.93080 | 6786 ft | 191 kts | 37° |
| 2026-05-06 19:11 | 49.54873 | 17.94271 | 6787 ft | 190 kts | 38° |
| 2026-05-06 19:11 | 49.55945 | 17.95469 | 6782 ft | 191 kts | 38° |
| 2026-05-06 19:11 | 49.57019 | 17.96667 | 6784 ft | 191 kts | 37° |
| 2026-05-06 19:12 | 49.58106 | 17.97888 | 6784 ft | 191 kts | 37° |
| 2026-05-06 19:12 | 49.59172 | 17.99077 | 6783 ft | 191 kts | 37° |
| 2026-05-06 19:12 | 49.60251 | 18.00276 | 6783 ft | 192 kts | 37° |
| 2026-05-06 19:12 | 49.61333 | 18.01483 | 6784 ft | 193 kts | 37° |
| 2026-05-06 19:13 | 49.62433 | 18.02713 | 6782 ft | 192 kts | 37° |
| 2026-05-06 19:13 | 49.63501 | 18.03912 | 6784 ft | 193 kts | 38° |
| 2026-05-06 19:13 | 49.64604 | 18.05148 | 6781 ft | 193 kts | 37° |
| 2026-05-06 19:13 | 49.65690 | 18.06366 | 6785 ft | 193 kts | 37° |
| 2026-05-06 19:14 | 49.66782 | 18.07579 | 6784 ft | 194 kts | 37° |
| 2026-05-06 19:14 | 49.67858 | 18.08787 | 6781 ft | 194 kts | 37° |
| 2026-05-06 19:14 | 49.68946 | 18.10010 | 6782 ft | 193 kts | 38° |
| 2026-05-06 19:14 | 49.69999 | 18.11282 | 6778 ft | 193 kts | 49° |
| 2026-05-06 19:15 | 49.70698 | 18.12904 | 6786 ft | 190 kts | 61° |
| 2026-05-06 19:15 | 49.71367 | 18.14625 | 6786 ft | 189 kts | 66° |
| 2026-05-06 19:15 | 49.72032 | 18.16367 | 6785 ft | 188 kts | 63° |
| 2026-05-06 19:15 | 49.72734 | 18.18100 | 6782 ft | 188 kts | 63° |
| 2026-05-06 19:16 | 49.73415 | 18.19793 | 6785 ft | 188 kts | 63° |
| 2026-05-06 19:16 | 49.74109 | 18.21519 | 6781 ft | 190 kts | 63° |
| 2026-05-06 19:16 | 49.74810 | 18.23247 | 6781 ft | 190 kts | 63° |
| 2026-05-06 19:16 | 49.75508 | 18.24975 | 6783 ft | 189 kts | 63° |
| 2026-05-06 19:17 | 49.76197 | 18.26688 | 6786 ft | 188 kts | 63° |
| 2026-05-06 19:17 | 49.76886 | 18.28410 | 6784 ft | 188 kts | 63° |
| 2026-05-06 19:17 | 49.77574 | 18.30134 | 6784 ft | 189 kts | 63° |
| 2026-05-06 19:17 | 49.78266 | 18.31858 | 6782 ft | 189 kts | 63° |
| 2026-05-06 19:18 | 49.78960 | 18.33577 | 6785 ft | 188 kts | 63° |
| 2026-05-06 19:18 | 49.79650 | 18.35293 | 6785 ft | 188 kts | 63° |
| 2026-05-06 19:18 | 49.80343 | 18.37018 | 6788 ft | 189 kts | 63° |
| 2026-05-06 19:18 | 49.81038 | 18.38753 | 6787 ft | 190 kts | 63° |
| 2026-05-06 19:19 | 49.81736 | 18.40485 | 6786 ft | 190 kts | 63° |
| 2026-05-06 19:19 | 49.82438 | 18.42209 | 6787 ft | 189 kts | 62° |
| 2026-05-06 19:19 | 49.83124 | 18.43935 | 6789 ft | 188 kts | 63° |
| 2026-05-06 19:19 | 49.83813 | 18.45660 | 6788 ft | 188 kts | 63° |
| 2026-05-06 19:20 | 49.84502 | 18.47370 | 6784 ft | 187 kts | 63° |
| 2026-05-06 19:20 | 49.85191 | 18.49078 | 6790 ft | 188 kts | 63° |
| 2026-05-06 19:20 | 49.85884 | 18.50795 | 6794 ft | 188 kts | 63° |
| 2026-05-06 19:20 | 49.86575 | 18.52511 | 6792 ft | 188 kts | 63° |
| 2026-05-06 19:21 | 49.87264 | 18.54224 | 6794 ft | 187 kts | 63° |
| 2026-05-06 19:21 | 49.87954 | 18.55942 | 6791 ft | 187 kts | 63° |
| 2026-05-06 19:21 | 49.88643 | 18.57647 | 6795 ft | 187 kts | 63° |
| 2026-05-06 19:21 | 49.89334 | 18.59359 | 6795 ft | 188 kts | 63° |
| 2026-05-06 19:22 | 49.90024 | 18.61075 | 6797 ft | 188 kts | 63° |
| 2026-05-06 19:22 | 49.90717 | 18.62794 | 6796 ft | 188 kts | 63° |
| 2026-05-06 19:22 | 49.91413 | 18.64503 | 6798 ft | 187 kts | 63° |
| 2026-05-06 19:22 | 49.92102 | 18.66217 | 6797 ft | 187 kts | 63° |
| 2026-05-06 19:23 | 49.92791 | 18.67930 | 6794 ft | 188 kts | 63° |
| 2026-05-06 19:23 | 49.93484 | 18.69651 | 6794 ft | 188 kts | 63° |
| 2026-05-06 19:23 | 49.94180 | 18.71368 | 6797 ft | 188 kts | 63° |
| 2026-05-06 19:23 | 49.94871 | 18.73087 | 6798 ft | 188 kts | 63° |
| 2026-05-06 19:24 | 49.95564 | 18.74805 | 6795 ft | 188 kts | 63° |
| 2026-05-06 19:24 | 49.96259 | 18.76524 | 6797 ft | 188 kts | 63° |
| 2026-05-06 19:24 | 49.96952 | 18.78241 | 6798 ft | 188 kts | 63° |
| 2026-05-06 19:24 | 49.97644 | 18.79959 | 6798 ft | 187 kts | 63° |
| 2026-05-06 19:25 | 49.98333 | 18.81675 | 6798 ft | 187 kts | 63° |
| 2026-05-06 19:25 | 49.98911 | 18.83483 | 6790 ft | 187 kts | 83° |
| 2026-05-06 19:25 | 49.98957 | 18.85452 | 6804 ft | 179 kts | 98° |
| 2026-05-06 19:25 | 49.98983 | 18.87376 | 6805 ft | 178 kts | 96° |
| 2026-05-06 19:26 | 49.99008 | 18.89294 | 6801 ft | 178 kts | 97° |
| 2026-05-06 19:26 | 49.99031 | 18.91216 | 6801 ft | 178 kts | 97° |
| 2026-05-06 19:26 | 49.99049 | 18.93108 | 6801 ft | 177 kts | 97° |
| 2026-05-06 19:26 | 49.99072 | 18.95025 | 6800 ft | 178 kts | 97° |
| 2026-05-06 19:27 | 49.99100 | 18.96945 | 6801 ft | 177 kts | 97° |
| 2026-05-06 19:27 | 49.99131 | 18.98860 | 6801 ft | 177 kts | 97° |
| 2026-05-06 19:27 | 49.99155 | 19.00773 | 6803 ft | 177 kts | 97° |
| 2026-05-06 19:27 | 49.99175 | 19.02693 | 6802 ft | 178 kts | 97° |
| 2026-05-06 19:28 | 49.99195 | 19.04618 | 6808 ft | 179 kts | 97° |
| 2026-05-06 19:28 | 49.99213 | 19.06544 | 6806 ft | 178 kts | 97° |
| 2026-05-06 19:28 | 49.99240 | 19.08469 | 6806 ft | 178 kts | 97° |
| 2026-05-06 19:28 | 49.99264 | 19.10391 | 6807 ft | 178 kts | 97° |
| 2026-05-06 19:29 | 49.99286 | 19.12309 | 6807 ft | 178 kts | 97° |
| 2026-05-06 19:29 | 49.99304 | 19.14234 | 6809 ft | 179 kts | 97° |
| 2026-05-06 19:29 | 49.99323 | 19.16167 | 6806 ft | 179 kts | 97° |
| 2026-05-06 19:29 | 49.99349 | 19.18089 | 6810 ft | 178 kts | 97° |
| 2026-05-06 19:30 | 49.99374 | 19.20014 | 6807 ft | 178 kts | 97° |
| 2026-05-06 19:30 | 49.99397 | 19.21940 | 6809 ft | 178 kts | 97° |
| 2026-05-06 19:30 | 49.99420 | 19.23864 | 6810 ft | 178 kts | 97° |
| 2026-05-06 19:30 | 49.99417 | 19.25786 | 6810 ft | 178 kts | 100° |
| 2026-05-06 19:31 | 49.99375 | 19.27693 | 6812 ft | 176 kts | 100° |
| 2026-05-06 19:31 | 49.99334 | 19.29601 | 6811 ft | 176 kts | 100° |
| 2026-05-06 19:31 | 49.99242 | 19.33412 | 6812 ft | 177 kts | 100° |
| 2026-05-06 19:32 | 49.99209 | 19.34679 | 6811 ft | 177 kts | 100° |
| 2026-05-06 19:32 | 49.99145 | 19.37227 | 6809 ft | 177 kts | 100° |
| 2026-05-06 19:32 | 49.99102 | 19.39136 | 6812 ft | 177 kts | 100° |
| 2026-05-06 19:32 | 49.99074 | 19.40395 | 6808 ft | 174 kts | 99° |
| 2026-05-06 19:33 | 49.99046 | 19.42243 | 6633 ft | 172 kts | 99° |
| 2026-05-06 19:33 | 49.99011 | 19.44133 | 6376 ft | 177 kts | 100° |
| 2026-05-06 19:33 | 49.98978 | 19.46019 | 6237 ft | 173 kts | 100° |
| 2026-05-06 19:33 | 49.98947 | 19.47879 | 6051 ft | 172 kts | 100° |
| 2026-05-06 19:34 | 49.98903 | 19.49743 | 5855 ft | 172 kts | 102° |
| 2026-05-06 19:34 | 49.98780 | 19.51582 | 5705 ft | 169 kts | 106° |
| 2026-05-06 19:34 | 49.98724 | 19.52241 | 5633 ft | 169 kts | 106° |
| 2026-05-06 19:35 | 49.98572 | 19.54051 | 5461 ft | 170 kts | 106° |
| 2026-05-06 19:35 | 49.98409 | 19.55873 | 5278 ft | 170 kts | 106° |
| 2026-05-06 19:35 | 49.98255 | 19.57684 | 5122 ft | 168 kts | 104° |
| 2026-05-06 19:35 | 49.98110 | 19.59489 | 4955 ft | 169 kts | 106° |
| 2026-05-06 19:36 | 49.97959 | 19.61265 | 4741 ft | 162 kts | 106° |
| 2026-05-06 19:36 | 49.97810 | 19.63028 | 4238 ft | 168 kts | 106° |
| 2026-05-06 19:36 | 49.97647 | 19.64818 | 3862 ft | 164 kts | 106° |
| 2026-05-06 19:36 | 49.97497 | 19.66540 | 3515 ft | 161 kts | 104° |
| 2026-05-06 19:37 | 49.97358 | 19.68260 | 3147 ft | 160 kts | 103° |
| 2026-05-06 19:37 | 49.97261 | 19.69965 | 2791 ft | 157 kts | 99° |
| 2026-05-06 19:37 | 49.97258 | 19.71661 | 2415 ft | 158 kts | 94° |
| 2026-05-06 19:37 | 49.97308 | 19.73325 | 2236 ft | 151 kts | 91° |
| 2026-05-06 19:38 | 49.97386 | 19.74964 | 1998 ft | 148 kts | 89° |
| 2026-05-06 19:38 | 49.97717 | 19.76452 | 1894 ft | 151 kts | 53° |
| 2026-05-06 19:38 | 49.98610 | 19.77266 | 1904 ft | 149 kts | 16° |
| 2026-05-06 19:38 | 49.99614 | 19.77484 | 2028 ft | 145 kts | 5° |
| 2026-05-06 19:39 | 50.00612 | 19.77733 | 1858 ft | 145 kts | 12° |
| 2026-05-06 19:39 | 50.01564 | 19.78150 | 1786 ft | 140 kts | 18° |
| 2026-05-06 19:39 | 50.02454 | 19.78569 | 1775 ft | 120 kts | 17° |
| 2026-05-06 19:39 | 50.03173 | 19.78904 | 1759 ft | 106 kts | 17° |
| 2026-05-06 19:40 | 50.03870 | 19.79268 | 1841 ft | 107 kts | 33° |
| 2026-05-06 19:40 | 50.04270 | 19.80269 | 1833 ft | 113 kts | 72° |
| 2026-05-06 19:40 | 50.04880 | 19.80974 | 1816 ft | 120 kts | 4° |
| 2026-05-06 19:40 | 50.05560 | 19.80337 | 1833 ft | 120 kts | 292° |
| 2026-05-06 19:41 | 50.05475 | 19.79086 | 1893 ft | 117 kts | 246° |
| 2026-05-06 19:41 | 50.05180 | 19.77924 | 1950 ft | 119 kts | 249° |
| 2026-05-06 19:41 | 50.04991 | 19.76676 | 2038 ft | 119 kts | 256° |
| 2026-05-06 19:41 | 50.04772 | 19.75401 | 2036 ft | 127 kts | 235° |
| 2026-05-06 19:42 | 50.04071 | 19.74607 | 2020 ft | 128 kts | 192° |
| 2026-05-06 19:42 | 50.03203 | 19.74862 | 1973 ft | 132 kts | 148° |
| 2026-05-06 19:42 | 50.02730 | 19.76046 | 1930 ft | 135 kts | 98° |
| 2026-05-06 19:42 | 50.02992 | 19.77428 | 1883 ft | 134 kts | 68° |
| 2026-05-06 19:43 | 50.03368 | 19.78652 | 1933 ft | 117 kts | 68° |
| 2026-05-06 19:43 | 50.03700 | 19.79778 | 1940 ft | 113 kts | 68° |
| 2026-05-06 19:43 | 50.04124 | 19.80785 | 1920 ft | 113 kts | 39° |
| 2026-05-06 19:43 | 50.04871 | 19.80963 | 1906 ft | 113 kts | 340° |
| 2026-05-06 19:44 | 50.05390 | 19.80130 | 1920 ft | 110 kts | 284° |
| 2026-05-06 19:44 | 50.05387 | 19.78988 | 1984 ft | 103 kts | 258° |
| 2026-05-06 19:44 | 50.05272 | 19.77886 | 2021 ft | 108 kts | 254° |
| 2026-05-06 19:44 | 50.05106 | 19.76725 | 2042 ft | 114 kts | 264° |
| 2026-05-06 19:45 | 50.05634 | 19.75770 | 2035 ft | 133 kts | 342° |
| 2026-05-06 19:45 | 50.06374 | 19.76364 | 1883 ft | 130 kts | 77° |
| 2026-05-06 19:45 | 50.06324 | 19.77690 | 1754 ft | 115 kts | 103° |
| 2026-05-06 19:45 | 50.06205 | 19.78857 | 1749 ft | 109 kts | 96° |
| 2026-05-06 19:46 | 50.06273 | 19.80038 | 1744 ft | 110 kts | 84° |
| 2026-05-06 19:46 | 50.06377 | 19.81204 | 1774 ft | 109 kts | 84° |
| 2026-05-06 19:46 | 50.06481 | 19.82342 | 1756 ft | 104 kts | 85° |
| 2026-05-06 19:46 | 50.06757 | 19.83328 | 1640 ft | 104 kts | 37° |
| 2026-05-06 19:47 | 50.07429 | 19.83424 | 1439 ft | 94 kts | 349° |
| 2026-05-06 19:47 | 50.07971 | 19.83211 | 1326 ft | 68 kts | 340° |
| 2026-05-06 19:47 | 50.08298 | 19.82748 | 1240 ft | 69 kts | 288° |
| 2026-05-06 19:47 | 50.08255 | 19.81965 | 1163 ft | 76 kts | 261° |
| 2026-05-06 19:48 | 50.08142 | 19.81153 | 1016 ft | 78 kts | 260° |
| 2026-05-06 19:48 | 50.08030 | 19.80341 | 871 ft | 71 kts | 261° |
| 2026-05-06 19:48 | 50.07933 | 19.79633 | 796 ft | 56 kts | 262° |
| 2026-05-06 19:48 | 50.07872 | 19.79179 | 795 ft | 30 kts | 258° |
| 2026-05-06 19:49 | 50.07786 | 19.79075 | 795 ft | 16 kts | 167° |
| 2026-05-06 19:49 | 50.07728 | 19.79094 | 794 ft | 0 kts | 171° |
| 2026-05-06 19:49 | 50.07726 | 19.79095 | 794 ft | 2 kts | 171° |
| 2026-05-06 19:49 | 50.07677 | 19.79110 | 794 ft | 13 kts | 167° |
| 2026-05-06 19:50 | 50.07619 | 19.79167 | 794 ft | 13 kts | 103° |
| 2026-05-06 19:50 | 50.07642 | 19.79370 | 794 ft | 25 kts | 77° |
| 2026-05-06 19:50 | 50.07682 | 19.79647 | 794 ft | 27 kts | 77° |
| 2026-05-06 19:50 | 50.07693 | 19.79863 | 794 ft | 15 kts | 146° |
| 2026-05-06 19:51 | 50.07610 | 19.79919 | 794 ft | 12 kts | 117° |
| 2026-05-06 19:51 | 50.07617 | 19.80018 | 794 ft | 8 kts | 79° |
| 2026-05-06 19:51 | 50.07657 | 19.80087 | 794 ft | 10 kts | 345° |
| 2026-05-06 19:51 | 50.07699 | 19.80074 | 794 ft | 0 kts | 351° |